createdAt,value
2017-12-27T00:02:15.692Z,8.57
2017-12-27T00:04:49.608Z,7.70
2017-12-27T00:07:23.031Z,6.80
2017-12-27T00:09:56.378Z,11.07
2017-12-27T00:36:50.447Z,6.20
2017-12-27T00:39:18.037Z,7.63
2017-12-27T00:41:47.466Z,6.90
2017-12-27T00:44:17.724Z,7.97
2017-12-27T00:46:46.752Z,6.50
2017-12-27T00:49:14.371Z,8.03
2017-12-27T00:51:44.099Z,6.57
2017-12-27T00:54:12.761Z,9.47
2017-12-27T00:56:40.428Z,7.70
2017-12-27T00:59:08.895Z,10.00
2017-12-27T01:01:36.501Z,9.33
2017-12-27T01:04:04.142Z,6.10
2017-12-27T01:06:31.793Z,8.43
2017-12-27T01:08:59.565Z,8.60
2017-12-27T01:11:28.909Z,9.23
2017-12-27T01:13:57.530Z,9.10
2017-12-27T01:16:25.157Z,7.47
2017-12-27T01:18:54.541Z,8.73
2017-12-27T01:21:22.169Z,6.80
2017-12-27T01:23:52.520Z,9.07
2017-12-27T01:26:20.922Z,10.20
2017-12-27T01:28:48.596Z,8.47
2017-12-27T01:31:16.426Z,8.20
2017-12-27T01:33:44.145Z,8.50
2017-12-27T01:36:11.811Z,7.40
2017-12-27T01:38:39.445Z,9.30
2017-12-27T01:41:07.106Z,7.70
2017-12-27T01:43:34.679Z,8.80
2017-12-27T01:46:02.434Z,9.77
2017-12-27T01:48:30.031Z,8.70
2017-12-27T01:51:00.119Z,9.93
2017-12-27T01:53:27.908Z,10.43
2017-12-27T01:55:55.562Z,10.90
2017-12-27T01:58:25.127Z,8.90
2017-12-27T02:00:52.773Z,10.60
2017-12-27T02:03:21.318Z,11.20
2017-12-27T02:05:50.558Z,14.80
2017-12-27T02:08:18.223Z,11.93
2017-12-27T02:10:46.013Z,13.47
2017-12-27T02:13:13.929Z,11.50
2017-12-27T02:15:41.580Z,10.87
2017-12-27T02:18:09.240Z,11.13
2017-12-27T02:20:36.858Z,14.00
2017-12-27T02:23:04.571Z,12.47
2017-12-27T02:25:32.165Z,11.67
2017-12-27T02:28:02.203Z,9.70
2017-12-27T02:30:30.599Z,12.13
2017-12-27T02:32:58.209Z,14.47
2017-12-27T02:35:26.602Z,11.47
2017-12-27T02:37:54.235Z,12.73
2017-12-27T02:40:25.759Z,15.03
2017-12-27T02:42:54.181Z,12.87
2017-12-27T02:45:21.979Z,10.57
2017-12-27T02:47:51.221Z,13.03
2017-12-27T02:50:18.936Z,12.73
2017-12-27T02:52:46.570Z,12.20
2017-12-27T02:55:14.228Z,11.70
2017-12-27T02:57:41.850Z,13.03
2017-12-27T03:00:10.627Z,12.83
2017-12-27T03:02:39.889Z,12.13
2017-12-27T03:05:08.626Z,11.07
2017-12-27T03:07:36.262Z,14.30
2017-12-27T03:10:03.918Z,13.50
2017-12-27T03:12:31.538Z,13.10
2017-12-27T03:15:00.060Z,14.43
2017-12-27T03:17:27.704Z,14.70
2017-12-27T03:19:55.355Z,15.30
2017-12-27T03:22:23.893Z,12.77
2017-12-27T03:24:51.533Z,14.10
2017-12-27T03:27:22.021Z,11.80
2017-12-27T03:29:49.682Z,12.87
2017-12-27T03:32:17.420Z,11.97
2017-12-27T03:34:46.926Z,15.30
2017-12-27T03:39:50.138Z,14.93
2017-12-27T03:42:20.351Z,11.00
2017-12-27T03:44:49.780Z,14.23
2017-12-27T03:47:17.586Z,11.37
2017-12-27T03:49:45.272Z,14.57
2017-12-27T03:52:12.969Z,13.00
2017-12-27T03:54:40.635Z,11.97
2017-12-27T03:57:08.320Z,13.00
2017-12-27T03:59:36.905Z,13.80
2017-12-27T04:02:04.573Z,11.50
2017-12-27T04:04:33.123Z,17.07
2017-12-27T04:07:01.043Z,13.97
2017-12-27T04:09:28.673Z,12.83
2017-12-27T04:11:57.036Z,12.00
2017-12-27T04:14:24.961Z,13.90
2017-12-27T04:16:55.214Z,14.53
2017-12-27T04:19:22.846Z,14.00
2017-12-27T04:21:50.540Z,10.37
2017-12-27T04:24:18.150Z,14.37
2017-12-27T04:26:45.846Z,10.80
2017-12-27T04:29:16.173Z,12.40
2017-12-27T04:31:44.068Z,10.40
2017-12-27T04:34:11.789Z,10.90
2017-12-27T04:36:42.225Z,10.30
2017-12-27T04:39:09.858Z,12.47
2017-12-27T04:41:37.646Z,11.67
2017-12-27T04:44:05.270Z,11.30
2017-12-27T04:46:32.899Z,14.77
2017-12-27T04:49:00.522Z,10.77
2017-12-27T04:51:29.364Z,16.23
2017-12-27T04:53:57.740Z,13.70
2017-12-27T04:56:25.324Z,12.80
2017-12-27T04:58:52.923Z,11.00
2017-12-27T05:01:20.526Z,10.90
2017-12-27T05:03:48.245Z,12.73
2017-12-27T05:06:16.236Z,12.60
2017-12-27T05:08:43.890Z,11.77
2017-12-27T05:11:11.490Z,12.17
2017-12-27T05:13:39.352Z,14.00
2017-12-27T05:16:06.934Z,12.47
2017-12-27T05:18:35.571Z,11.73
2017-12-27T05:21:03.260Z,11.87
2017-12-27T05:23:31.848Z,11.10
2017-12-27T05:25:59.452Z,11.80
2017-12-27T05:28:29.218Z,10.90
2017-12-27T05:30:58.223Z,12.47
2017-12-27T05:33:25.856Z,11.77
2017-12-27T05:35:54.241Z,12.00
2017-12-27T05:38:23.513Z,13.50
2017-12-27T05:40:51.195Z,15.03
2017-12-27T05:43:20.424Z,11.13
2017-12-27T05:45:48.100Z,11.60
2017-12-27T05:48:15.744Z,11.77
2017-12-27T05:50:43.390Z,13.33
2017-12-27T05:53:11.035Z,11.10
2017-12-27T05:55:41.120Z,10.93
2017-12-27T05:58:08.864Z,13.10
2017-12-27T06:00:38.116Z,13.33
2017-12-27T06:03:05.855Z,13.40
2017-12-27T06:05:33.474Z,12.63
2017-12-27T06:08:01.136Z,13.50
2017-12-27T06:10:30.537Z,13.40
2017-12-27T06:12:58.262Z,13.93
2017-12-27T06:15:26.298Z,11.57
2017-12-27T06:17:54.212Z,14.13
2017-12-27T06:20:21.789Z,12.93
2017-12-27T06:22:49.554Z,12.70
2017-12-27T06:25:17.196Z,12.30
2017-12-27T06:27:45.130Z,11.70
2017-12-27T06:30:14.457Z,14.87
2017-12-27T06:32:43.463Z,12.80
2017-12-27T06:35:11.198Z,13.43
2017-12-27T06:37:39.609Z,13.13
2017-12-27T06:40:07.229Z,12.33
2017-12-27T06:42:34.906Z,13.03
2017-12-27T06:45:02.608Z,14.30
2017-12-27T06:47:30.221Z,14.17
2017-12-27T06:50:01.007Z,12.80
2017-12-27T06:55:01.183Z,12.30
2017-12-27T06:57:29.555Z,12.70
2017-12-27T06:59:59.886Z,13.10
2017-12-27T07:02:27.607Z,13.93
2017-12-27T07:04:55.342Z,12.90
2017-12-27T07:07:22.979Z,14.17
2017-12-27T07:09:50.835Z,12.30
2017-12-27T07:12:18.608Z,14.53
2017-12-27T07:14:47.604Z,14.50
2017-12-27T07:17:15.293Z,12.67
2017-12-27T07:19:42.878Z,12.27
2017-12-27T07:22:10.728Z,12.50
2017-12-27T07:24:38.357Z,19.00
2017-12-27T07:27:06.014Z,21.50
2017-12-27T07:29:33.829Z,15.23
2017-12-27T07:32:03.227Z,16.13
2017-12-27T07:34:31.120Z,16.00
2017-12-27T07:37:00.059Z,17.70
2017-12-27T07:39:28.471Z,15.07
2017-12-27T07:42:00.584Z,13.70
2017-12-27T07:44:28.391Z,15.20
2017-12-27T07:46:58.161Z,16.17
2017-12-27T07:52:12.686Z,13.47
2017-12-27T07:54:40.343Z,15.60
2017-12-27T07:57:09.120Z,14.07
2017-12-27T07:59:36.878Z,17.20
2017-12-27T08:02:04.610Z,17.30
2017-12-27T08:04:33.528Z,22.47
2017-12-27T08:07:02.773Z,22.83
2017-12-27T08:09:32.298Z,21.50
2017-12-27T08:12:01.770Z,21.23
2017-12-27T08:14:29.512Z,14.73
2017-12-27T08:16:57.125Z,15.23
2017-12-27T08:19:27.409Z,15.70
2017-12-27T08:21:55.120Z,19.30
2017-12-27T08:24:22.872Z,15.97
2017-12-27T08:26:50.573Z,27.33
2017-12-27T08:29:19.226Z,20.80
2017-12-27T08:31:46.904Z,20.20
2017-12-27T08:47:15.042Z,19.43
2017-12-27T08:49:42.694Z,16.67
2017-12-27T08:52:10.425Z,15.70
2017-12-27T08:54:38.113Z,16.07
2017-12-27T08:57:06.849Z,19.37
2017-12-27T08:59:34.537Z,18.53
2017-12-27T09:02:02.347Z,16.93
2017-12-27T09:04:30.999Z,16.90
2017-12-27T09:07:01.837Z,17.40
2017-12-27T09:09:29.772Z,17.33
2017-12-27T09:11:57.485Z,18.57
2017-12-27T09:14:26.443Z,17.73
2017-12-27T09:16:54.202Z,15.90
2017-12-27T09:19:22.399Z,16.03
2017-12-27T09:21:50.106Z,20.80
2017-12-27T09:24:17.996Z,16.70
2017-12-27T09:26:47.030Z,20.80
2017-12-27T09:29:15.600Z,21.53
2017-12-27T09:31:43.315Z,21.73
2017-12-27T09:34:11.029Z,19.30
2017-12-27T09:36:40.461Z,24.23
2017-12-27T09:39:08.164Z,20.07
2017-12-27T09:41:35.904Z,16.80
2017-12-27T09:44:05.410Z,20.70
2017-12-27T09:46:34.625Z,20.50
2017-12-27T09:49:02.269Z,15.23
2017-12-27T09:51:29.920Z,17.70
2017-12-27T09:53:57.577Z,17.10
2017-12-27T09:56:28.355Z,15.73
2017-12-27T09:58:56.104Z,18.07
2017-12-27T10:01:24.723Z,13.87
2017-12-27T10:03:52.495Z,16.40
2017-12-27T10:06:20.261Z,15.50
2017-12-27T10:08:47.863Z,17.43
2017-12-27T10:11:15.559Z,19.10
2017-12-27T10:13:43.218Z,12.50
2017-12-27T10:16:10.994Z,15.70
2017-12-27T10:18:38.643Z,16.30
2017-12-27T10:21:06.259Z,23.50
2017-12-27T10:23:33.940Z,15.50
2017-12-27T10:26:02.825Z,16.07
2017-12-27T10:28:30.520Z,14.77
2017-12-27T10:30:58.755Z,15.87
2017-12-27T10:33:28.094Z,15.23
2017-12-27T10:35:55.830Z,13.67
2017-12-27T10:38:25.372Z,15.53
2017-12-27T10:40:53.168Z,13.00
2017-12-27T10:43:23.142Z,15.03
2017-12-27T10:45:53.474Z,16.63
2017-12-27T10:48:24.177Z,15.67
2017-12-27T10:50:52.878Z,14.77
2017-12-27T10:53:20.585Z,14.67
2017-12-27T10:55:51.083Z,19.37
2017-12-27T10:58:19.010Z,15.30
2017-12-27T11:00:47.438Z,14.20
2017-12-27T11:03:16.142Z,17.23
2017-12-27T11:05:47.624Z,13.13
2017-12-27T11:08:17.948Z,15.97
2017-12-27T11:10:46.364Z,20.10
2017-12-27T11:13:14.020Z,12.97
2017-12-27T11:15:41.970Z,12.93
2017-12-27T11:18:10.480Z,16.60
2017-12-27T11:20:38.202Z,15.57
2017-12-27T11:23:06.098Z,16.70
2017-12-27T11:25:35.384Z,11.50
2017-12-27T11:28:05.779Z,36.07
2017-12-27T11:30:33.671Z,13.40
2017-12-27T11:33:02.079Z,39.60
2017-12-27T11:35:29.820Z,17.40
2017-12-27T11:37:57.525Z,58.53
2017-12-27T11:40:25.176Z,17.70
2017-12-27T11:42:52.803Z,12.43
2017-12-27T11:45:20.407Z,14.70
2017-12-27T11:47:49.661Z,17.50
2017-12-27T11:50:17.497Z,15.53
2017-12-27T11:52:46.131Z,20.30
2017-12-27T11:55:14.081Z,17.43
2017-12-27T11:57:41.768Z,15.90
2017-12-27T12:00:11.244Z,17.20
2017-12-27T12:02:39.776Z,13.50
2017-12-27T12:05:09.799Z,13.63
2017-12-27T12:07:37.434Z,24.53
2017-12-27T12:10:08.101Z,15.50
2017-12-27T12:12:38.427Z,15.00
2017-12-27T12:15:06.353Z,13.03
2017-12-27T12:17:34.030Z,14.17
2017-12-27T12:20:01.744Z,13.10
2017-12-27T12:22:29.445Z,14.50
2017-12-27T12:24:57.141Z,12.70
2017-12-27T12:27:24.883Z,13.53
2017-12-27T12:29:52.543Z,17.00
2017-12-27T12:32:22.963Z,14.03
2017-12-27T12:34:52.908Z,14.40
2017-12-27T12:37:22.146Z,16.23
2017-12-27T12:39:49.981Z,14.40
2017-12-27T12:42:18.393Z,21.90
2017-12-27T12:44:46.151Z,17.60
2017-12-27T12:47:13.831Z,16.40
2017-12-27T12:49:43.249Z,15.20
2017-12-27T12:52:11.187Z,16.67
2017-12-27T12:54:38.890Z,14.20
2017-12-27T12:57:07.232Z,16.10
2017-12-27T12:59:34.952Z,16.50
2017-12-27T13:02:02.687Z,16.17
2017-12-27T13:04:30.691Z,14.30
2017-12-27T13:06:58.420Z,15.17
2017-12-27T13:09:26.194Z,14.53
2017-12-27T13:11:53.940Z,17.30
2017-12-27T13:14:21.693Z,14.30
2017-12-27T13:16:50.636Z,15.20
2017-12-27T13:19:18.398Z,16.27
2017-12-27T13:21:46.148Z,15.50
2017-12-27T13:24:13.852Z,15.60
2017-12-27T13:26:43.342Z,16.40
2017-12-27T13:29:11.823Z,16.83
2017-12-27T13:31:39.537Z,19.20
2017-12-27T13:34:07.243Z,15.23
2017-12-27T13:36:35.035Z,13.53
2017-12-27T13:39:02.796Z,12.93
2017-12-27T13:41:30.464Z,14.50
2017-12-27T13:43:58.130Z,14.63
2017-12-27T13:46:25.803Z,15.30
2017-12-27T13:48:55.737Z,26.03
2017-12-27T13:51:23.470Z,27.53
2017-12-27T13:53:52.929Z,19.50
2017-12-27T13:56:22.745Z,22.97
2017-12-27T13:58:50.473Z,26.27
2017-12-27T14:01:19.870Z,16.30
2017-12-27T14:03:49.196Z,14.10
2017-12-27T14:06:17.707Z,15.93
2017-12-27T14:08:45.455Z,29.23
2017-12-27T14:11:13.217Z,39.60
2017-12-27T14:13:40.894Z,26.40
2017-12-27T14:16:09.600Z,18.67
2017-12-27T14:18:39.973Z,19.13
2017-12-27T14:21:07.720Z,17.00
2017-12-27T14:23:35.672Z,22.17
2017-12-27T14:26:03.334Z,20.73
2017-12-27T14:28:30.988Z,19.27
2017-12-27T14:30:58.787Z,16.73
2017-12-27T14:33:29.016Z,24.07
2017-12-27T14:35:56.716Z,18.97
2017-12-27T14:38:24.450Z,18.53
2017-12-27T14:40:53.838Z,20.33
2017-12-27T14:43:23.193Z,17.47
2017-12-27T14:45:50.908Z,18.63
2017-12-27T14:48:18.552Z,16.57
2017-12-27T14:50:46.182Z,19.77
2017-12-27T14:53:14.816Z,19.33
2017-12-27T14:55:42.534Z,18.87
2017-12-27T14:58:10.200Z,18.53
2017-12-27T15:00:37.966Z,17.83
2017-12-27T15:03:06.567Z,19.23
2017-12-27T15:05:34.313Z,18.90
2017-12-27T15:08:02.016Z,21.60
2017-12-27T15:10:29.764Z,17.20
2017-12-27T15:12:59.238Z,17.67
2017-12-27T15:15:26.996Z,16.73
2017-12-27T15:17:55.727Z,17.83
2017-12-27T15:20:25.099Z,18.27
2017-12-27T15:22:52.928Z,16.53
2017-12-27T15:25:20.556Z,15.93
2017-12-27T15:27:48.254Z,19.30
2017-12-27T15:30:16.882Z,18.90
2017-12-27T15:32:44.610Z,19.07
2017-12-27T15:35:12.878Z,21.80
2017-12-27T15:37:40.595Z,22.17
2017-12-27T15:40:08.212Z,18.77
2017-12-27T15:42:35.928Z,16.10
2017-12-27T15:45:03.581Z,21.10
2017-12-27T15:47:32.718Z,19.40
2017-12-27T15:50:00.413Z,17.10
2017-12-27T15:52:28.042Z,19.10
2017-12-27T15:54:55.792Z,23.17
2017-12-27T15:57:24.508Z,24.10
2017-12-27T15:59:55.189Z,23.23
2017-12-27T16:02:23.752Z,18.60
2017-12-27T16:04:53.211Z,20.70
2017-12-27T16:07:21.019Z,22.27
2017-12-27T16:09:48.806Z,17.53
2017-12-27T16:12:16.453Z,18.80
2017-12-27T16:14:44.141Z,17.53
2017-12-27T16:17:11.839Z,20.33
2017-12-27T16:19:40.036Z,19.40
2017-12-27T16:22:07.790Z,17.33
2017-12-27T16:24:36.202Z,21.83
2017-12-27T16:27:05.557Z,21.57
2017-12-27T16:29:33.655Z,18.40
2017-12-27T16:32:01.318Z,19.63
2017-12-27T16:34:28.985Z,20.70
2017-12-27T16:36:56.639Z,20.65
2017-12-27T16:39:24.335Z,18.90
2017-12-27T16:41:52.021Z,18.00
2017-12-27T16:44:19.729Z,18.83
2017-12-27T16:46:47.351Z,22.27
2017-12-27T16:49:15.585Z,19.00
2017-12-27T16:51:43.589Z,18.30
2017-12-27T16:54:11.380Z,20.53
2017-12-27T16:56:40.731Z,19.50
2017-12-27T16:59:10.271Z,18.57
2017-12-27T17:01:38.376Z,17.30
2017-12-27T17:04:06.101Z,19.90
2017-12-27T17:06:33.748Z,18.43
2017-12-27T17:09:01.463Z,16.93
2017-12-27T17:11:29.919Z,17.23
2017-12-27T17:13:57.707Z,19.87
2017-12-27T17:16:25.486Z,18.17
2017-12-27T17:18:53.153Z,20.37
2017-12-27T17:21:21.033Z,19.90
2017-12-27T17:23:50.014Z,20.90
2017-12-27T17:26:18.482Z,26.70
2017-12-27T18:04:43.210Z,20.17
2017-12-27T18:07:11.632Z,20.37
2017-12-27T18:09:39.349Z,18.50
2017-12-27T18:12:07.125Z,17.97
2017-12-27T18:14:35.767Z,20.33
2017-12-27T18:17:04.889Z,16.70
2017-12-27T18:19:34.626Z,19.33
2017-12-27T18:22:02.523Z,17.47
2017-12-27T18:24:30.264Z,20.50
2017-12-27T18:26:57.955Z,18.70
2017-12-27T18:29:25.708Z,18.30
2017-12-27T18:31:53.354Z,18.17
2017-12-27T18:34:21.060Z,17.37
2017-12-27T18:36:48.795Z,18.63
2017-12-27T18:39:18.770Z,18.00
2017-12-27T18:41:46.445Z,16.40
2017-12-27T18:44:14.143Z,16.07
2017-12-27T18:46:42.038Z,15.40
2017-12-27T18:49:11.575Z,14.40
2017-12-27T18:51:39.262Z,18.33
2017-12-27T18:54:08.633Z,16.47
2017-12-27T18:56:38.232Z,15.83
2017-12-27T18:59:05.933Z,17.40
2017-12-27T19:01:33.621Z,17.50
2017-12-27T19:04:01.399Z,15.20
2017-12-27T19:06:29.187Z,17.37
2017-12-27T19:08:56.849Z,16.40
2017-12-27T19:11:24.610Z,11.97
2017-12-27T19:13:53.013Z,13.47
2017-12-27T19:16:21.881Z,15.87
2017-12-27T19:18:50.373Z,15.40
2017-12-27T19:21:18.384Z,14.17
2017-12-27T19:23:46.211Z,13.57
2017-12-27T19:26:13.907Z,12.30
2017-12-27T19:28:41.734Z,15.17
2017-12-27T19:31:11.195Z,13.97
2017-12-27T19:33:40.785Z,16.00
2017-12-27T19:36:08.544Z,13.53
2017-12-27T19:38:36.505Z,17.50
2017-12-27T19:41:05.996Z,12.93
2017-12-27T19:43:34.181Z,14.57
2017-12-27T19:46:02.929Z,16.73
2017-12-27T19:48:30.740Z,14.03
2017-12-27T19:51:00.381Z,16.97
2017-12-27T19:53:28.318Z,11.90
2017-12-27T19:55:56.901Z,12.97
2017-12-27T19:58:24.880Z,9.53
2017-12-27T20:00:52.757Z,9.90
2017-12-27T20:03:20.666Z,11.27
2017-12-27T20:05:49.513Z,10.07
2017-12-27T20:08:17.391Z,10.53
2017-12-27T20:10:45.261Z,13.90
2017-12-27T20:13:13.267Z,12.37
2017-12-27T20:15:41.226Z,12.13
2017-12-27T20:18:08.963Z,11.23
2017-12-27T20:20:36.843Z,11.20
2017-12-27T20:23:05.632Z,11.40
2017-12-27T20:25:33.408Z,9.40
2017-12-27T20:28:01.220Z,13.27
2017-12-27T20:30:29.079Z,11.57
2017-12-27T20:32:57.196Z,9.70
2017-12-27T20:35:24.917Z,9.27
2017-12-27T20:37:54.909Z,11.20
2017-12-27T20:40:24.614Z,10.53
2017-12-27T20:42:52.482Z,8.07
2017-12-27T20:45:20.333Z,13.77
2017-12-27T20:47:53.951Z,9.50
2017-12-27T20:50:21.915Z,7.50
2017-12-27T20:52:50.424Z,7.70
2017-12-27T20:55:18.291Z,6.73
2017-12-27T20:57:47.202Z,9.07
2017-12-27T21:00:15.061Z,8.13
2017-12-27T21:02:42.886Z,7.77
2017-12-27T21:05:10.785Z,7.60
2017-12-27T21:07:40.502Z,9.93
2017-12-27T21:10:08.582Z,13.80
2017-12-27T21:12:36.646Z,8.97
2017-12-27T21:15:04.617Z,10.63
2017-12-27T21:17:32.589Z,9.00
2017-12-27T21:20:00.629Z,8.77
2017-12-27T21:22:28.744Z,8.27
2017-12-27T21:24:56.756Z,10.48
2017-12-27T21:27:24.999Z,8.50
2017-12-27T21:29:57.763Z,7.77
2017-12-27T21:32:25.670Z,8.17
2017-12-27T21:34:53.891Z,8.10
2017-12-27T21:37:21.847Z,7.77
2017-12-27T21:39:52.384Z,8.00
2017-12-27T21:42:20.296Z,6.93
2017-12-27T21:44:48.177Z,7.10
2017-12-27T21:50:30.426Z,7.13
2017-12-27T21:52:58.232Z,6.33
2017-12-27T21:55:25.982Z,7.90
2017-12-27T21:57:56.506Z,10.00
2017-12-27T22:00:31.634Z,6.37
2017-12-27T22:03:02.589Z,8.70
2017-12-27T22:05:30.578Z,6.60
2017-12-27T22:08:00.035Z,8.53
2017-12-27T22:10:29.823Z,8.70
2017-12-27T22:12:57.610Z,6.90
2017-12-27T22:15:27.332Z,6.60
2017-12-27T22:17:55.263Z,6.93
2017-12-27T22:20:32.574Z,6.67
2017-12-27T22:23:00.388Z,9.20
2017-12-27T22:25:28.087Z,7.20
2017-12-27T22:27:55.842Z,6.40
2017-12-27T22:30:23.557Z,8.30
2017-12-27T22:32:53.236Z,7.23
2017-12-27T22:35:20.916Z,6.50
2017-12-27T22:37:48.597Z,6.90
2017-12-27T22:40:16.414Z,6.00
2017-12-27T22:42:44.015Z,6.00
2017-12-27T22:45:13.594Z,6.50
2017-12-27T22:47:41.330Z,6.13
2017-12-27T22:50:09.043Z,8.00
2017-12-27T22:52:36.692Z,7.30
2017-12-27T22:55:04.381Z,5.83
2017-12-27T22:57:32.005Z,6.60
2017-12-27T22:59:59.765Z,5.83
2017-12-27T23:02:27.429Z,6.23
2017-12-27T23:04:55.111Z,9.65
2017-12-27T23:07:22.815Z,7.43
2017-12-27T23:09:51.396Z,9.20
2017-12-27T23:12:19.088Z,10.35
2017-12-27T23:14:46.748Z,7.90
2017-12-27T23:17:14.467Z,10.55
2017-12-27T23:19:42.138Z,9.60
2017-12-27T23:22:09.832Z,10.20
2017-12-27T23:24:37.453Z,7.10
2017-12-27T23:27:05.157Z,6.90
2017-12-27T23:29:32.816Z,7.00
2017-12-27T23:32:03.248Z,6.40
2017-12-27T23:34:31.014Z,5.60
2017-12-27T23:36:58.666Z,5.10
2017-12-27T23:39:26.342Z,7.20
2017-12-27T23:41:54.048Z,6.30
2017-12-27T23:44:21.718Z,5.80
2017-12-27T23:46:49.348Z,6.50
2017-12-27T23:49:17.006Z,5.80
2017-12-27T23:51:44.598Z,5.57
2017-12-27T23:54:13.220Z,6.20
2017-12-27T23:56:42.596Z,5.37
2017-12-27T23:59:10.333Z,5.47
